Time;durP1;ratioP1;P1;durP2;ratioP2;P2;SDS_P1;SDS_P2;PMS_P1;PMS_P2;Temp;Humidity;BMP_temperature;BMP_pressure;BME280_temperature;BME280_humidity;BME280_pressure;Samples;Min_cycle;Max_cycle;Signal;HPM_P1;HPM_P2
2022/11/22 00:00:38;;;;;;;120.30;70.00;;;1.30;99.90;;;;;;6128570;23;20089;-80
2022/11/22 00:03:06;;;;;;;148.55;83.40;;;1.40;99.90;;;;;;6128094;23;20025;-78
2022/11/22 00:05:33;;;;;;;134.18;75.63;;;1.30;99.90;;;;;;6128987;23;20017;-80
2022/11/22 00:08:00;;;;;;;129.57;72.25;;;1.30;99.90;;;;;;6128876;23;20033;-78
2022/11/22 00:10:28;;;;;;;121.03;65.03;;;1.20;99.90;;;;;;6128831;23;20087;-79
2022/11/22 00:12:55;;;;;;;127.35;69.10;;;1.30;99.90;;;;;;6127509;23;20026;-79
2022/11/22 00:15:22;;;;;;;128.27;69.82;;;1.30;99.90;;;;;;6129030;23;20029;-79
2022/11/22 00:17:51;;;;;;;116.72;62.97;;;1.30;99.90;;;;;;6129169;23;20022;-78
2022/11/22 00:20:18;;;;;;;115.35;64.53;;;1.40;99.90;;;;;;6094002;23;20038;-80
2022/11/22 00:22:46;;;;;;;129.15;74.22;;;1.40;99.90;;;;;;6128245;23;20029;-81
2022/11/22 00:25:13;;;;;;;139.95;77.53;;;1.30;99.90;;;;;;6131467;23;20033;-80
2022/11/22 00:27:41;;;;;;;154.60;84.28;;;1.30;99.90;;;;;;6134851;23;20018;-79
2022/11/22 00:30:09;;;;;;;129.75;72.95;;;1.30;99.90;;;;;;6132126;23;20049;-78
2022/11/22 00:32:37;;;;;;;112.80;63.78;;;1.20;99.90;;;;;;6128251;23;20018;-80
2022/11/22 00:35:06;;;;;;;115.20;63.45;;;1.20;99.90;;;;;;6128540;23;20075;-79
2022/11/22 00:37:35;;;;;;;115.82;63.80;;;1.30;99.90;;;;;;6129005;23;20025;-79
2022/11/22 00:40:02;;;;;;;112.63;64.07;;;1.30;99.90;;;;;;6129150;23;20029;-79
2022/11/22 00:42:30;;;;;;;112.78;62.58;;;1.30;99.90;;;;;;6128132;23;20014;-79
2022/11/22 00:44:58;;;;;;;117.57;64.07;;;1.30;99.90;;;;;;6129656;23;20422;-79
2022/11/22 00:47:25;;;;;;;109.13;60.88;;;1.30;99.90;;;;;;6130022;23;20018;-79
2022/11/22 00:49:52;;;;;;;99.88;55.88;;;1.30;99.90;;;;;;6129265;23;20014;-79
2022/11/22 00:52:21;;;;;;;104.78;60.78;;;1.30;99.90;;;;;;6128353;23;20039;-79
2022/11/22 00:54:48;;;;;;;119.88;63.03;;;1.40;99.90;;;;;;6128912;23;20470;-79
2022/11/22 00:57:16;;;;;;;117.65;64.78;;;1.30;99.90;;;;;;6128715;23;20022;-79
2022/11/22 00:59:43;;;;;;;119.65;66.43;;;1.40;99.90;;;;;;6128474;23;20094;-79
2022/11/22 01:02:10;;;;;;;114.78;65.43;;;1.40;99.90;;;;;;6127763;23;20021;-78
2022/11/22 01:04:37;;;;;;;143.48;79.22;;;1.30;99.90;;;;;;6128553;23;20018;-78
2022/11/22 01:07:05;;;;;;;151.73;84.07;;;1.30;99.90;;;;;;6131334;23;20021;-79
2022/11/22 01:09:34;;;;;;;132.55;72.35;;;1.20;99.90;;;;;;6128576;23;20075;-78
2022/11/22 01:12:02;;;;;;;116.70;62.65;;;1.20;99.90;;;;;;6127500;23;20502;-78
2022/11/22 01:14:29;;;;;;;121.00;69.10;;;1.30;99.90;;;;;;6128230;23;20018;-79
2022/11/22 01:16:56;;;;;;;81.97;48.33;;;1.20;99.90;;;;;;6128406;23;20018;-79
2022/11/22 01:19:23;;;;;;;90.90;52.03;;;1.20;99.90;;;;;;6128427;23;20472;-78
2022/11/22 01:21:51;;;;;;;115.18;64.05;;;1.30;99.90;;;;;;6127694;23;20021;-79
2022/11/22 01:24:18;;;;;;;109.07;61.55;;;1.30;99.90;;;;;;6128310;23;20106;-79
2022/11/22 01:26:47;;;;;;;118.28;63.47;;;1.40;99.90;;;;;;6128462;23;20088;-79
2022/11/22 01:29:14;;;;;;;107.78;58.08;;;1.40;99.90;;;;;;6128348;23;20018;-79
2022/11/22 01:31:41;;;;;;;104.03;59.50;;;1.40;99.90;;;;;;6127781;23;20013;-79
2022/11/22 01:34:08;;;;;;;113.03;62.15;;;1.40;99.90;;;;;;6128394;23;20026;-80
2022/11/22 01:36:36;;;;;;;178.23;92.95;;;1.30;99.90;;;;;;6128756;23;20061;-78
2022/11/22 01:39:03;;;;;;;107.60;61.25;;;1.30;99.90;;;;;;6128566;23;20072;-79
2022/11/22 01:41:30;;;;;;;94.20;52.47;;;1.30;99.90;;;;;;6127507;23;20022;-79
2022/11/22 01:44:25;;;;;;;81.82;46.58;;;1.30;99.90;;;;;;6128232;23;20022;-79
2022/11/22 01:46:55;;;;;;;81.45;48.25;;;1.30;99.90;;;;;;6128628;23;20022;-80
2022/11/22 01:49:28;;;;;;;74.32;44.33;;;1.30;99.90;;;;;;6128597;23;20018;-78
2022/11/22 01:52:00;;;;;;;102.75;59.00;;;1.40;99.90;;;;;;6127946;23;20018;-79
2022/11/22 01:54:32;;;;;;;97.57;57.50;;;1.30;99.90;;;;;;6128274;23;20014;-77
2022/11/22 01:57:04;;;;;;;92.72;58.00;;;1.20;99.90;;;;;;6147370;23;20017;-78
2022/11/22 01:59:35;;;;;;;94.40;56.03;;;1.20;99.90;;;;;;6137620;23;20022;-79
2022/11/22 02:02:04;;;;;;;94.13;55.30;;;1.20;99.90;;;;;;6138910;23;20048;-79
2022/11/22 02:04:32;;;;;;;96.47;57.08;;;1.10;99.90;;;;;;6145887;23;20454;-79
2022/11/22 02:07:05;;;;;;;92.00;54.35;;;1.10;99.90;;;;;;6128500;23;20022;-79
2022/11/22 02:09:34;;;;;;;78.72;50.58;;;1.10;99.90;;;;;;6128115;23;20022;-77
2022/11/22 02:12:05;;;;;;;84.65;53.90;;;1.10;99.90;;;;;;6127552;23;20022;-79
2022/11/22 02:14:34;;;;;;;97.63;59.85;;;1.00;99.90;;;;;;6128634;23;20022;-78
2022/11/22 02:17:02;;;;;;;94.88;56.67;;;1.10;99.90;;;;;;6129217;23;20026;-79
2022/11/22 02:19:38;;;;;;;97.43;56.72;;;1.10;99.90;;;;;;6128145;23;20033;-78
2022/11/22 02:22:17;;;;;;;87.78;51.03;;;1.10;99.90;;;;;;6126976;23;20063;-78
2022/11/22 02:24:50;;;;;;;83.07;47.80;;;1.10;99.90;;;;;;6128260;23;20018;-78
2022/11/22 02:27:19;;;;;;;75.60;44.55;;;1.10;99.90;;;;;;6128095;23;20072;-77
2022/11/22 02:29:47;;;;;;;74.63;44.28;;;1.00;99.90;;;;;;6128523;23;20772;-80
2022/11/22 02:32:14;;;;;;;69.60;40.92;;;1.10;99.90;;;;;;6127269;23;20456;-79
2022/11/22 02:34:43;;;;;;;63.88;38.00;;;1.10;99.90;;;;;;6128419;23;20030;-78
2022/11/22 02:37:13;;;;;;;88.75;50.17;;;1.20;99.90;;;;;;6150931;23;20358;-78
2022/11/22 02:39:42;;;;;;;76.78;45.63;;;1.10;99.90;;;;;;6151166;23;20017;-80
2022/11/22 02:42:09;;;;;;;99.75;56.65;;;1.10;99.90;;;;;;6149465;23;20018;-79
2022/11/22 02:44:38;;;;;;;90.78;53.20;;;1.10;99.90;;;;;;6128807;23;20014;-79
2022/11/22 02:47:05;;;;;;;89.68;50.75;;;1.00;99.90;;;;;;6128244;23;20097;-80
2022/11/22 02:49:33;;;;;;;100.72;58.17;;;0.90;99.90;;;;;;6128507;23;20492;-79
2022/11/22 02:52:00;;;;;;;87.75;51.45;;;0.90;99.90;;;;;;6127853;23;20315;-80
2022/11/22 02:54:27;;;;;;;85.05;47.35;;;0.90;99.90;;;;;;6128772;23;20022;-78
2022/11/22 02:56:54;;;;;;;77.40;44.70;;;0.90;99.90;;;;;;6128842;23;20045;-77
2022/11/22 02:59:22;;;;;;;68.72;40.42;;;1.00;99.90;;;;;;6128642;23;20029;-78
2022/11/22 03:01:50;;;;;;;87.43;48.03;;;1.00;99.90;;;;;;6127900;23;20085;-78
2022/11/22 03:04:24;;;;;;;81.63;45.08;;;1.00;99.90;;;;;;6127634;23;20071;-80
2022/11/22 03:06:53;;;;;;;84.18;46.90;;;1.00;99.90;;;;;;6127961;23;20018;-79
2022/11/22 03:09:21;;;;;;;68.90;38.50;;;1.00;99.90;;;;;;6127656;23;20019;-78
2022/11/22 03:11:48;;;;;;;70.72;39.22;;;0.90;99.90;;;;;;6126616;23;20080;-78
2022/11/22 03:14:15;;;;;;;72.85;41.63;;;1.00;99.90;;;;;;6127036;23;20026;-78
2022/11/22 03:16:43;;;;;;;81.10;45.65;;;0.90;99.90;;;;;;6127849;23;20446;-77
2022/11/22 03:19:12;;;;;;;80.18;44.70;;;0.90;99.90;;;;;;6128111;23;20017;-79
2022/11/22 03:21:41;;;;;;;73.78;43.35;;;0.90;99.90;;;;;;6128168;23;20018;-79
2022/11/22 03:24:09;;;;;;;55.90;32.95;;;0.90;99.90;;;;;;6129044;23;20018;-79
2022/11/22 03:26:37;;;;;;;67.03;41.22;;;0.80;99.90;;;;;;6137507;23;20045;-78
2022/11/22 03:29:05;;;;;;;65.55;38.08;;;0.90;99.90;;;;;;6143120;23;20365;-79
2022/11/22 03:31:32;;;;;;;71.43;42.08;;;0.80;99.90;;;;;;6103048;23;20022;-78
2022/11/22 03:34:00;;;;;;;70.53;40.13;;;0.80;99.90;;;;;;6128848;23;20503;-79
2022/11/22 03:36:28;;;;;;;61.40;36.35;;;0.80;99.90;;;;;;6128862;23;20071;-79
2022/11/22 03:38:55;;;;;;;69.13;42.22;;;0.80;99.90;;;;;;6128992;23;20085;-78
2022/11/22 03:41:23;;;;;;;69.80;39.35;;;0.80;99.90;;;;;;6127876;23;20018;-77
2022/11/22 03:43:51;;;;;;;64.25;37.17;;;0.80;99.90;;;;;;6128780;23;20017;-81
2022/11/22 03:46:19;;;;;;;66.45;38.13;;;0.80;99.90;;;;;;6128771;23;20460;-79
2022/11/22 03:48:46;;;;;;;73.70;37.75;;;0.70;99.90;;;;;;6129069;23;20096;-79
2022/11/22 03:51:14;;;;;;;64.10;37.22;;;0.70;99.90;;;;;;6127941;23;20040;-79
2022/11/22 03:53:42;;;;;;;68.72;36.67;;;0.70;99.90;;;;;;6128858;23;20093;-80
2022/11/22 03:56:10;;;;;;;52.20;30.98;;;0.80;99.90;;;;;;6128591;23;20018;-78
2022/11/22 03:58:37;;;;;;;52.08;29.40;;;0.90;99.90;;;;;;6128955;23;20017;-78
2022/11/22 04:01:05;;;;;;;67.20;37.83;;;0.90;99.90;;;;;;6128380;23;20025;-78
2022/11/22 04:03:32;;;;;;;57.38;35.40;;;0.90;99.90;;;;;;6128971;23;20446;-79
2022/11/22 04:05:59;;;;;;;54.92;32.58;;;0.90;99.90;;;;;;6128842;23;20072;-78
2022/11/22 04:08:27;;;;;;;44.42;28.08;;;0.90;99.90;;;;;;6129157;23;20079;-79
2022/11/22 04:10:55;;;;;;;53.75;32.03;;;0.90;99.90;;;;;;6128522;23;20017;-78
2022/11/22 04:15:05;;;;;;;51.72;30.17;;;1.00;99.90;;;;;;6126943;23;20572;-78
2022/11/22 04:16:09;;;;;;;61.53;36.53;;;0.90;99.90;;;;;;6128616;23;20017;-79
2022/11/22 04:18:36;;;;;;;51.70;30.23;;;0.90;99.90;;;;;;6128785;23;20337;-79
2022/11/22 04:26:33;;;;;;;54.78;32.58;;;0.80;99.90;;;;;;6128029;23;20355;-78
2022/11/22 04:29:00;;;;;;;50.92;30.92;;;0.80;99.90;;;;;;6128956;23;20026;-77
2022/11/22 04:34:12;;;;;;;61.85;35.42;;;0.80;99.90;;;;;;6129624;23;20089;-78
2022/11/22 04:36:40;;;;;;;52.25;31.35;;;0.80;99.90;;;;;;6129786;23;20040;-78
2022/11/22 04:39:07;;;;;;;58.20;33.67;;;0.90;99.90;;;;;;6128766;23;20014;-78
2022/11/22 04:41:36;;;;;;;52.33;30.38;;;0.90;99.90;;;;;;6127781;23;20038;-78
2022/11/22 04:46:48;;;;;;;48.78;27.33;;;1.00;99.90;;;;;;6128470;23;20025;-79
2022/11/22 04:49:15;;;;;;;43.67;24.55;;;1.00;99.90;;;;;;6128669;23;20022;-78
2022/11/22 04:54:32;;;;;;;37.65;22.48;;;1.10;99.90;;;;;;6045335;23;20027;-78
2022/11/22 04:57:01;;;;;;;40.20;24.55;;;1.20;99.90;;;;;;6128409;23;20013;-78
2022/11/22 04:59:28;;;;;;;43.63;26.83;;;1.30;99.90;;;;;;6128642;23;20093;-81
2022/11/22 05:01:55;;;;;;;47.25;27.90;;;1.30;99.90;;;;;;6127868;23;20022;-77
2022/11/22 05:04:23;;;;;;;51.38;27.63;;;1.20;99.90;;;;;;6128888;23;20519;-79
2022/11/22 05:06:50;;;;;;;49.47;27.52;;;1.20;99.90;;;;;;6128741;23;20018;-79
2022/11/22 05:09:17;;;;;;;54.83;31.38;;;1.20;99.90;;;;;;6128308;23;20018;-79
2022/11/22 05:11:45;;;;;;;57.92;32.00;;;1.20;99.90;;;;;;6127947;23;20014;-79
2022/11/22 05:14:14;;;;;;;67.18;37.63;;;1.20;99.90;;;;;;6093077;23;20022;-77
2022/11/22 05:16:41;;;;;;;60.42;33.75;;;1.20;99.90;;;;;;6128710;23;20089;-79
2022/11/22 05:19:09;;;;;;;75.00;37.50;;;1.20;99.90;;;;;;6128827;23;20434;-78
2022/11/22 05:21:36;;;;;;;66.47;39.10;;;1.20;99.90;;;;;;6127804;23;20043;-79
2022/11/22 05:24:03;;;;;;;76.28;40.55;;;1.20;99.90;;;;;;6128467;23;20033;-78
2022/11/22 05:26:32;;;;;;;72.75;42.78;;;1.20;99.90;;;;;;6128430;23;20465;-77
2022/11/22 05:29:03;;;;;;;71.30;38.38;;;1.20;99.90;;;;;;6092608;23;20037;-78
2022/11/22 05:31:33;;;;;;;68.47;39.22;;;1.20;99.90;;;;;;6127829;23;20079;-78
2022/11/22 05:34:01;;;;;;;63.15;37.60;;;1.20;99.90;;;;;;6092849;23;20088;-77
2022/11/22 05:36:30;;;;;;;63.40;36.50;;;1.30;99.90;;;;;;6092767;23;20025;-77
2022/11/22 05:38:58;;;;;;;84.28;46.42;;;1.30;99.90;;;;;;6129401;23;20025;-79
2022/11/22 05:41:25;;;;;;;75.80;41.65;;;1.30;99.90;;;;;;6129233;23;20042;-79
2022/11/22 05:43:55;;;;;;;68.55;38.53;;;1.40;99.90;;;;;;6130814;23;20017;-79
2022/11/22 05:46:25;;;;;;;56.10;33.85;;;1.40;99.90;;;;;;6129267;23;20109;-79
2022/11/22 05:48:55;;;;;;;54.53;32.20;;;1.50;99.90;;;;;;6128186;23;20388;-76
2022/11/22 05:51:24;;;;;;;54.15;32.38;;;1.50;99.90;;;;;;6128323;23;20018;-78
2022/11/22 05:53:51;;;;;;;65.75;38.03;;;1.60;99.90;;;;;;6130031;23;20242;-77
2022/11/22 05:56:21;;;;;;;83.03;47.72;;;1.60;99.90;;;;;;6119825;23;20033;-78
2022/11/22 05:58:49;;;;;;;83.60;48.17;;;1.60;99.90;;;;;;6132067;23;20025;-80
2022/11/22 06:01:19;;;;;;;93.32;52.47;;;1.60;99.90;;;;;;6127319;23;20041;-79
2022/11/22 06:03:47;;;;;;;71.95;41.10;;;1.60;99.90;;;;;;6093205;23;20018;-77
2022/11/22 06:06:15;;;;;;;76.40;43.95;;;1.70;99.90;;;;;;6092976;23;20026;-77
2022/11/22 06:08:46;;;;;;;125.60;73.00;;;1.70;99.90;;;;;;6127792;23;20071;-79
2022/11/22 06:11:16;;;;;;;101.68;59.60;;;1.70;99.90;;;;;;6127315;23;20085;-79
2022/11/22 06:13:45;;;;;;;112.53;64.70;;;1.60;99.90;;;;;;6128222;23;20052;-79
2022/11/22 06:16:13;;;;;;;86.30;48.65;;;1.60;99.90;;;;;;6128114;23;20197;-79
2022/11/22 06:18:40;;;;;;;96.55;54.05;;;1.70;99.90;;;;;;6127967;23;20014;-78
2022/11/22 06:21:11;;;;;;;94.35;49.20;;;1.70;99.90;;;;;;6127651;23;20091;-78
2022/11/22 06:23:40;;;;;;;114.03;59.83;;;1.80;99.90;;;;;;6129249;23;20017;-78
2022/11/22 06:26:09;;;;;;;105.30;57.65;;;1.90;99.90;;;;;;6130299;23;20040;-79
2022/11/22 06:28:38;;;;;;;80.55;42.90;;;1.80;99.90;;;;;;6128988;23;20036;-80
2022/11/22 06:31:07;;;;;;;82.68;43.25;;;1.90;99.90;;;;;;6128935;23;20014;-78
2022/11/22 06:33:35;;;;;;;81.85;43.88;;;2.00;99.90;;;;;;6128777;23;20022;-78
2022/11/22 06:36:03;;;;;;;82.40;45.20;;;2.10;99.90;;;;;;6127739;23;20032;-79
2022/11/22 06:38:31;;;;;;;89.40;48.10;;;2.20;99.90;;;;;;6126986;23;20014;-78
2022/11/22 06:41:01;;;;;;;117.18;63.35;;;2.30;99.90;;;;;;6127696;23;20452;-79
2022/11/22 06:43:29;;;;;;;118.03;63.95;;;2.40;99.90;;;;;;6128290;23;20060;-77
2022/11/22 06:45:57;;;;;;;112.45;61.75;;;2.40;99.90;;;;;;6128008;23;20446;-77
2022/11/22 06:48:24;;;;;;;113.85;63.20;;;2.40;99.90;;;;;;6091357;23;20025;-80
2022/11/22 06:50:52;;;;;;;122.50;65.88;;;2.50;99.90;;;;;;6092222;23;20018;-79
2022/11/22 06:53:19;;;;;;;131.68;70.82;;;2.60;99.90;;;;;;6127135;23;20088;-78
2022/11/22 06:55:46;;;;;;;146.85;83.80;;;2.60;99.90;;;;;;6127947;23;20084;-79
2022/11/22 06:58:15;;;;;;;136.90;75.03;;;2.60;99.90;;;;;;6128184;23;20434;-78
2022/11/22 07:00:42;;;;;;;178.10;97.10;;;2.70;99.90;;;;;;6127742;23;20022;-77
2022/11/22 07:03:09;;;;;;;198.90;106.40;;;2.70;99.90;;;;;;6127444;23;20048;-79
2022/11/22 07:05:36;;;;;;;216.00;118.20;;;2.80;99.90;;;;;;6127171;23;20018;-78
2022/11/22 07:08:04;;;;;;;176.60;103.13;;;3.00;99.90;;;;;;6129335;23;20018;-79
2022/11/22 07:10:31;;;;;;;200.20;120.80;;;3.10;99.90;;;;;;6129196;23;20377;-77
2022/11/22 07:12:58;;;;;;;207.77;123.53;;;3.10;99.90;;;;;;6128359;23;20389;-78
2022/11/22 07:15:27;;;;;;;172.18;100.45;;;3.20;99.90;;;;;;6129340;23;20022;-78
2022/11/22 07:17:55;;;;;;;222.73;127.57;;;3.20;99.90;;;;;;6128482;23;20525;-78
2022/11/22 07:20:22;;;;;;;216.07;119.70;;;3.20;99.90;;;;;;6128936;23;20330;-79
2022/11/22 07:22:49;;;;;;;216.85;120.43;;;3.30;99.90;;;;;;6128060;23;20018;-77
2022/11/22 07:25:16;;;;;;;198.75;107.97;;;3.30;99.90;;;;;;6128843;23;20014;-79
2022/11/22 07:27:44;;;;;;;171.77;93.72;;;3.20;99.90;;;;;;6128930;23;20014;-77
2022/11/22 07:30:12;;;;;;;165.95;92.85;;;3.20;99.90;;;;;;6129697;23;20017;-77
2022/11/22 07:32:40;;;;;;;157.15;87.45;;;3.20;99.90;;;;;;6130746;23;20018;-78
2022/11/22 07:35:08;;;;;;;146.65;84.97;;;3.30;99.90;;;;;;6152277;23;20048;-78
2022/11/22 07:37:36;;;;;;;144.55;79.65;;;3.40;99.90;;;;;;6155341;23;20346;-79
2022/11/22 07:40:04;;;;;;;152.80;87.55;;;3.50;99.90;;;;;;6150045;23;20053;-78
2022/11/22 07:42:31;;;;;;;136.77;79.70;;;3.50;99.90;;;;;;6127236;23;20014;-77
2022/11/22 07:44:58;;;;;;;144.32;84.70;;;3.50;99.90;;;;;;6128647;23;20063;-76
2022/11/22 07:47:26;;;;;;;136.57;80.55;;;3.50;99.90;;;;;;6129201;23;20014;-77
2022/11/22 07:49:54;;;;;;;147.35;85.65;;;3.60;99.90;;;;;;6129212;23;20014;-78
2022/11/22 07:52:22;;;;;;;154.57;93.40;;;3.60;99.90;;;;;;6129366;23;20014;-80
2022/11/22 07:54:49;;;;;;;146.27;89.80;;;3.80;99.90;;;;;;6135237;23;20060;-80
2022/11/22 07:57:16;;;;;;;128.85;79.78;;;4.00;99.90;;;;;;6097680;23;20323;-80
2022/11/22 07:59:43;;;;;;;139.60;88.32;;;4.10;99.90;;;;;;6129066;23;20018;-78
2022/11/22 08:02:11;;;;;;;135.60;84.00;;;4.10;99.90;;;;;;6128091;23;20079;-79
2022/11/22 08:04:39;;;;;;;132.80;83.13;;;4.20;99.90;;;;;;6129134;23;20021;-79
2022/11/22 08:07:08;;;;;;;162.15;97.95;;;4.40;99.90;;;;;;6134109;23;20022;-80
2022/11/22 08:09:35;;;;;;;163.93;98.43;;;4.40;99.90;;;;;;6137246;23;20465;-79
2022/11/22 08:12:03;;;;;;;158.13;97.28;;;4.50;99.90;;;;;;6134658;23;20386;-79
2022/11/22 08:14:30;;;;;;;166.75;103.28;;;4.60;99.90;;;;;;6132425;23;20052;-80
2022/11/22 08:16:58;;;;;;;222.70;132.43;;;4.50;99.90;;;;;;6129711;23;20018;-78
2022/11/22 08:19:25;;;;;;;206.18;126.05;;;4.40;99.90;;;;;;6129139;23;20017;-78
2022/11/22 08:21:53;;;;;;;207.50;121.60;;;4.20;99.90;;;;;;6128400;23;20087;-80
2022/11/22 08:24:21;;;;;;;173.45;111.72;;;4.30;99.90;;;;;;6094476;23;20022;-79
2022/11/22 08:26:49;;;;;;;175.20;108.13;;;4.50;99.90;;;;;;6108604;23;20021;-78
2022/11/22 08:29:16;;;;;;;162.02;105.43;;;4.60;99.90;;;;;;6146725;23;20014;-78
2022/11/22 08:31:43;;;;;;;210.20;130.60;;;4.70;99.90;;;;;;6145454;23;20041;-79
2022/11/22 08:34:10;;;;;;;145.88;90.60;;;4.80;99.90;;;;;;6132375;23;20056;-77
2022/11/22 08:36:38;;;;;;;146.25;91.63;;;4.90;99.90;;;;;;6129164;23;20442;-79
2022/11/22 08:39:05;;;;;;;93.15;57.50;;;5.10;99.90;;;;;;6093897;23;20088;-79
2022/11/22 08:41:34;;;;;;;88.53;54.03;;;5.30;99.90;;;;;;6127985;23;20079;-78
2022/11/22 08:44:01;;;;;;;82.53;49.28;;;5.60;99.90;;;;;;6128397;23;20048;-79
2022/11/22 08:46:28;;;;;;;78.20;47.67;;;5.80;99.90;;;;;;6129711;23;20080;-79
2022/11/22 08:48:56;;;;;;;67.05;40.58;;;6.00;99.90;;;;;;6133433;23;20017;-80
2022/11/22 08:51:23;;;;;;;91.65;53.97;;;6.20;99.90;;;;;;6132031;23;20018;-80
2022/11/22 08:53:50;;;;;;;115.65;72.68;;;6.40;99.90;;;;;;6128585;23;20021;-77
2022/11/22 08:56:17;;;;;;;128.65;83.65;;;6.50;99.90;;;;;;6092983;23;20068;-80
2022/11/22 08:58:46;;;;;;;124.47;81.50;;;6.50;99.90;;;;;;6128637;23;20052;-78
2022/11/22 09:01:15;;;;;;;128.88;82.25;;;6.40;99.90;;;;;;6128265;23;20018;-78
2022/11/22 09:03:43;;;;;;;124.35;80.05;;;6.30;99.90;;;;;;6093200;23;20026;-80
2022/11/22 09:06:13;;;;;;;128.50;80.65;;;6.30;99.90;;;;;;6130585;23;20079;-78
2022/11/22 09:08:40;;;;;;;118.05;73.88;;;6.40;99.90;;;;;;6128490;23;20405;-79
2022/11/22 09:11:09;;;;;;;117.75;76.70;;;6.40;99.90;;;;;;6127936;23;20442;-78
2022/11/22 09:13:37;;;;;;;110.30;70.07;;;6.50;99.90;;;;;;6128586;23;20018;-78
2022/11/22 09:16:08;;;;;;;100.80;65.57;;;6.50;99.90;;;;;;6128543;23;20018;-78
2022/11/22 09:18:36;;;;;;;110.22;70.18;;;6.60;99.90;;;;;;6129066;23;20018;-79
2022/11/22 09:21:05;;;;;;;104.10;67.18;;;6.60;99.90;;;;;;6128530;23;20022;-78
2022/11/22 09:23:33;;;;;;;90.43;55.67;;;6.70;99.90;;;;;;6093247;23;20014;-78
2022/11/22 09:26:04;;;;;;;98.72;64.10;;;6.80;99.90;;;;;;6128692;23;20029;-76
2022/11/22 09:28:32;;;;;;;103.00;65.93;;;6.80;99.90;;;;;;6128699;23;20335;-79
2022/11/22 09:31:00;;;;;;;99.22;62.20;;;6.90;99.90;;;;;;6128293;23;20770;-76
2022/11/22 09:33:30;;;;;;;90.75;57.38;;;6.90;99.90;;;;;;6128266;23;20018;-78
2022/11/22 09:36:01;;;;;;;66.63;41.65;;;7.00;99.90;;;;;;6133550;23;20066;-80
2022/11/22 09:38:29;;;;;;;41.53;24.40;;;7.20;99.90;;;;;;6128785;23;20014;-78
2022/11/22 09:40:57;;;;;;;34.38;21.10;;;7.40;99.90;;;;;;6093267;23;20022;-79
2022/11/22 09:43:37;;;;;;;29.83;19.35;;;7.60;99.90;;;;;;6128326;23;20565;-79
2022/11/22 09:46:26;;;;;;;20.80;12.90;;;7.90;99.90;;;;;;6128305;23;20044;-80
2022/11/22 09:49:21;;;;;;;23.60;13.45;;;8.10;99.90;;;;;;6129722;23;20013;-78
2022/11/22 09:51:53;;;;;;;22.95;12.15;;;8.30;99.90;;;;;;6129636;23;20378;-80
2022/11/22 09:54:26;;;;;;;18.65;12.30;;;8.50;99.90;;;;;;6138054;23;20128;-78
2022/11/22 09:56:59;;;;;;;17.50;11.15;;;8.60;99.90;;;;;;6135907;23;20025;-78
2022/11/22 09:59:31;;;;;;;19.95;11.52;;;8.70;99.90;;;;;;6128327;23;20071;-77
2022/11/22 10:02:04;;;;;;;18.88;11.30;;;8.80;99.90;;;;;;6119749;23;20018;-77
2022/11/22 10:04:37;;;;;;;15.43;10.38;;;8.90;99.90;;;;;;6092994;23;20060;-79
2022/11/22 10:07:10;;;;;;;25.23;12.52;;;9.00;99.90;;;;;;6128511;23;20018;-78
2022/11/22 10:09:42;;;;;;;23.92;12.93;;;9.00;99.90;;;;;;6128529;23;20413;-79
2022/11/22 10:12:16;;;;;;;20.63;11.98;;;9.00;99.90;;;;;;6127481;23;20088;-77
2022/11/22 10:14:51;;;;;;;19.30;11.52;;;9.10;99.90;;;;;;6128360;23;20124;-80
2022/11/22 10:17:30;;;;;;;14.65;9.40;;;9.10;99.90;;;;;;6128187;23;20018;-78
2022/11/22 10:20:06;;;;;;;13.85;8.45;;;9.20;99.90;;;;;;6128695;23;20025;-79
2022/11/22 10:22:34;;;;;;;14.60;9.27;;;9.30;99.90;;;;;;6127867;23;20018;-77
2022/11/22 10:25:09;;;;;;;12.07;8.07;;;9.30;99.90;;;;;;6128021;23;20101;-77
2022/11/22 10:27:38;;;;;;;13.10;7.93;;;9.40;99.90;;;;;;6128250;23;20017;-77
2022/11/22 10:30:12;;;;;;;12.63;7.78;;;9.40;99.90;;;;;;6128184;23;20045;-78
2022/11/22 10:32:43;;;;;;;11.85;7.60;;;9.60;99.90;;;;;;6091614;23;20457;-77
2022/11/22 10:35:35;;;;;;;12.77;7.85;;;9.60;99.90;;;;;;6128017;23;20018;-77
2022/11/22 10:38:15;;;;;;;11.27;7.78;;;9.70;99.90;;;;;;6128089;23;20014;-77
2022/11/22 10:40:50;;;;;;;13.73;7.38;;;9.80;99.90;;;;;;6127613;23;20373;-79
2022/11/22 10:43:36;;;;;;;11.00;6.45;;;9.90;99.90;;;;;;6127100;23;20052;-79
2022/11/22 10:46:13;;;;;;;12.60;6.13;;;9.90;99.90;;;;;;6128296;23;20045;-78
2022/11/22 10:48:49;;;;;;;13.27;7.45;;;9.90;99.90;;;;;;6127982;23;20068;-79
2022/11/22 10:51:23;;;;;;;12.23;7.28;;;9.90;99.90;;;;;;6127162;23;20022;-77
2022/11/22 10:54:02;;;;;;;11.23;6.40;;;9.90;99.90;;;;;;6129444;23;20033;-80
2022/11/22 10:56:35;;;;;;;12.07;6.85;;;10.00;99.90;;;;;;6133055;23;20022;-79
2022/11/22 10:59:23;;;;;;;16.13;9.02;;;10.00;99.90;;;;;;6131647;23;20064;-79
2022/11/22 11:02:01;;;;;;;12.48;6.70;;;10.00;99.90;;;;;;6131892;23;20026;-79
2022/11/22 11:04:32;;;;;;;14.02;7.80;;;10.10;99.90;;;;;;6133742;23;20022;-80
2022/11/22 11:07:04;;;;;;;10.55;6.00;;;10.10;99.90;;;;;;6106747;23;20018;-79
2022/11/22 11:09:37;;;;;;;13.10;6.63;;;10.20;99.90;;;;;;6129641;23;20097;-77
2022/11/22 11:12:13;;;;;;;12.40;7.50;;;10.20;99.90;;;;;;6128205;23;20019;-79
2022/11/22 11:14:45;;;;;;;12.23;6.65;;;10.30;99.90;;;;;;6128853;23;20022;-79
2022/11/22 11:17:16;;;;;;;10.60;5.93;;;10.40;99.90;;;;;;6127627;23;20018;-79
2022/11/22 11:19:47;;;;;;;11.68;5.95;;;10.40;99.90;;;;;;6126661;23;20018;-79
2022/11/22 11:22:20;;;;;;;12.82;7.70;;;10.50;99.90;;;;;;6133655;23;20014;-80
2022/11/22 11:24:48;;;;;;;10.35;4.97;;;10.50;99.90;;;;;;6136052;23;20096;-79
2022/11/22 11:27:18;;;;;;;11.63;6.07;;;10.50;99.90;;;;;;6130224;23;20014;-77
2022/11/22 11:29:47;;;;;;;13.40;5.43;;;10.60;99.90;;;;;;6127408;23;20080;-80
2022/11/22 11:32:16;;;;;;;8.80;4.97;;;10.70;99.90;;;;;;6126488;23;20021;-78
2022/11/22 11:34:52;;;;;;;10.45;5.68;;;10.80;99.90;;;;;;6092496;23;20018;-81
2022/11/22 11:37:25;;;;;;;;;;;10.90;99.90;;;;;;6094904;23;20022;-77
2022/11/22 11:39:52;;;;;;;9.52;5.40;;;11.00;99.90;;;;;;6128698;23;19921;-80
2022/11/22 11:42:28;;;;;;;9.35;4.70;;;11.00;99.90;;;;;;6126880;23;20025;-79
2022/11/22 11:45:18;;;;;;;9.00;5.32;;;11.10;99.90;;;;;;6124751;23;20028;-77
2022/11/22 11:47:45;;;;;;;8.75;5.40;;;11.10;99.90;;;;;;6127664;23;20071;-79
2022/11/22 11:50:18;;;;;;;7.93;4.70;;;11.10;99.90;;;;;;6127779;23;20402;-79
2022/11/22 11:52:52;;;;;;;8.60;4.65;;;11.10;99.90;;;;;;6125722;23;20042;-79
2022/11/22 11:55:20;;;;;;;9.13;5.00;;;11.20;99.90;;;;;;6093362;23;20033;-79
2022/11/22 11:57:49;;;;;;;9.57;3.85;;;11.30;99.90;;;;;;6128891;23;20084;-79
2022/11/22 12:00:24;;;;;;;7.85;4.25;;;11.30;99.90;;;;;;6127904;23;20014;-80
2022/11/22 12:02:57;;;;;;;8.97;4.57;;;11.40;99.90;;;;;;6127517;23;20017;-80
2022/11/22 12:05:28;;;;;;;11.70;5.45;;;11.40;99.90;;;;;;6129668;23;20256;-78
2022/11/22 12:07:57;;;;;;;8.60;5.13;;;11.30;99.90;;;;;;6129280;23;20018;-80
2022/11/22 12:10:30;;;;;;;9.10;5.03;;;11.30;99.90;;;;;;6103602;23;20106;-79
2022/11/22 12:13:03;;;;;;;9.50;5.20;;;11.30;99.90;;;;;;6127989;23;20022;-78
2022/11/22 12:15:41;;;;;;;13.05;6.20;;;11.30;99.90;;;;;;6128160;23;20042;-79
2022/11/22 12:18:23;;;;;;;10.57;5.80;;;11.20;99.90;;;;;;6127891;23;20018;-79
2022/11/22 12:20:56;;;;;;;11.48;6.70;;;11.20;99.90;;;;;;6126828;23;20014;-80
2022/11/22 12:23:31;;;;;;;12.13;6.70;;;11.20;99.90;;;;;;6127659;23;20018;-77
2022/11/22 12:25:59;;;;;;;13.70;6.27;;;11.20;99.90;;;;;;6127688;23;20025;-78
2022/11/22 12:28:28;;;;;;;10.90;5.78;;;11.20;99.90;;;;;;6128460;23;20024;-78
2022/11/22 12:30:59;;;;;;;13.13;5.63;;;11.20;99.90;;;;;;6128668;23;20135;-77
2022/11/22 12:33:30;;;;;;;9.30;4.68;;;11.20;99.90;;;;;;6128313;23;20385;-81
2022/11/22 12:35:58;;;;;;;8.93;4.88;;;11.20;99.90;;;;;;6131764;23;20013;-77
2022/11/22 12:38:31;;;;;;;9.13;4.40;;;11.20;99.90;;;;;;6139310;23;20082;-80
2022/11/22 12:41:03;;;;;;;10.40;5.53;;;11.30;99.90;;;;;;6130434;23;20067;-79
2022/11/22 12:43:52;;;;;;;9.55;5.57;;;11.30;99.90;;;;;;6130013;23;20017;-89
2022/11/22 12:46:23;;;;;;;9.20;5.15;;;11.30;99.90;;;;;;6128377;23;20038;-78
2022/11/22 12:48:56;;;;;;;10.65;5.00;;;11.30;99.90;;;;;;6129878;23;20093;-80
2022/11/22 12:51:45;;;;;;;;;;;;;;;;;;;;;
2022/11/22 12:54:20;;;;;;;16.00;7.38;;;11.30;99.90;;;;;;6129762;23;20038;-84
2022/11/22 12:56:58;;;;;;;13.50;7.10;;;11.30;99.90;;;;;;6094253;23;20018;-87
2022/11/22 12:59:35;;;;;;;17.42;9.02;;;11.30;99.90;;;;;;6094262;23;20022;-88
2022/11/22 13:02:18;;;;;;;11.48;5.80;;;11.30;99.90;;;;;;6128398;23;20018;-82